Time;durP1;ratioP1;P1;durP2;ratioP2;P2;SDS_P1;SDS_P2;PMS_P1;PMS_P2;Temp;Humidity;BMP_temperature;BMP_pressure;BME280_temperature;BME280_humidity;BME280_pressure;Samples;Min_cycle;Max_cycle;Signal;HPM_P1;HPM_P2
2022/08/02 00:01:21;;;;;;;5.95;4.10;;;;;;;21.67;78.24;100065.09;5074452;28;20097;-80
2022/08/02 00:03:51;;;;;;;8.00;3.75;;;;;;;21.68;77.31;100070.34;5075201;28;20037;-79
2022/08/02 00:06:19;;;;;;;7.18;4.15;;;;;;;21.62;78.50;100065.59;5075434;28;20040;-76
2022/08/02 00:08:47;;;;;;;5.38;3.92;;;;;;;21.54;78.40;100054.72;5075218;28;20560;-76
2022/08/02 00:11:16;;;;;;;5.47;3.67;;;;;;;21.37;81.94;100056.56;5075462;28;20095;-75
2022/08/02 00:13:44;;;;;;;5.75;3.90;;;;;;;21.27;85.13;100065.88;5073838;28;20059;-75
2022/08/02 00:16:15;;;;;;;5.07;3.92;;;;;;;21.11;87.35;100062.03;5075465;28;20045;-75
2022/08/02 00:18:44;;;;;;;8.45;4.05;;;;;;;21.05;88.76;100056.44;5075079;28;20094;-75
2022/08/02 00:21:14;;;;;;;5.05;4.05;;;;;;;21.05;85.91;100062.72;5075371;28;20044;-75
2022/08/02 00:23:43;;;;;;;5.40;4.03;;;;;;;21.18;84.37;100055.97;5075084;28;20037;-75
2022/08/02 00:26:31;;;;;;;6.90;4.10;;;;;;;21.24;87.01;100058.03;5075335;28;20052;-75
2022/08/02 00:28:59;;;;;;;6.88;3.60;;;;;;;21.15;85.13;100058.00;5074875;28;20037;-75
2022/08/02 00:31:27;;;;;;;6.50;4.03;;;;;;;21.30;82.59;100062.81;5075197;28;20066;-75
2022/08/02 00:33:55;;;;;;;4.85;3.97;;;;;;;21.23;83.23;100059.00;5074840;28;20235;-79
2022/08/02 00:36:45;;;;;;;4.82;3.97;;;;;;;21.23;83.97;100056.31;5074574;28;20151;-79
2022/08/02 00:39:13;;;;;;;6.22;4.25;;;;;;;21.13;85.00;100064.59;5074910;28;20075;-79
2022/08/02 00:42:01;;;;;;;7.07;4.13;;;;;;;21.01;85.92;100055.91;5073910;28;20067;-79
2022/08/02 00:44:29;;;;;;;5.15;3.95;;;;;;;20.98;86.45;100053.53;5075031;28;20131;-79
2022/08/02 00:46:57;;;;;;;5.88;3.65;;;;;;;20.98;85.66;100049.97;5074701;28;20044;-83
2022/08/02 00:49:25;;;;;;;7.82;3.97;;;;;;;20.83;86.75;100055.16;5074822;28;20048;-84
2022/08/02 00:51:55;;;;;;;9.68;4.13;;;;;;;20.76;87.75;100057.69;5074605;28;20046;-84
2022/08/02 00:54:23;;;;;;;6.00;3.83;;;;;;;20.65;93.30;100065.22;5073304;28;20052;-80
2022/08/02 00:56:51;;;;;;;6.05;4.57;;;;;;;20.67;91.45;100069.50;5074264;28;20090;-79
2022/08/02 00:59:19;;;;;;;7.50;4.93;;;;;;;20.68;91.03;100067.63;5074710;28;20045;-75
2022/08/02 01:01:48;;;;;;;6.72;4.70;;;;;;;20.65;91.21;100076.06;5074164;28;20044;-75
2022/08/02 01:04:26;;;;;;;6.90;4.22;;;;;;;20.66;90.39;100069.66;5074230;28;20068;-74
2022/08/02 01:07:02;;;;;;;7.75;4.65;;;;;;;20.71;89.74;100075.44;5074065;28;20048;-75
2022/08/02 01:09:41;;;;;;;6.40;4.13;;;;;;;20.68;89.39;100075.78;5074381;28;20040;-75
2022/08/02 01:12:10;;;;;;;5.97;4.40;;;;;;;20.73;89.24;100082.38;5074407;28;20040;-75
2022/08/02 01:14:41;;;;;;;6.07;4.57;;;;;;;20.80;87.57;100082.59;5072692;28;20062;-75
2022/08/02 01:17:17;;;;;;;6.07;4.20;;;;;;;20.79;89.06;100080.91;5074232;28;20048;-74
2022/08/02 01:19:53;;;;;;;8.30;4.72;;;;;;;20.72;89.80;100074.41;5073854;28;20041;-75
2022/08/02 01:22:46;;;;;;;7.78;4.57;;;;;;;20.64;94.24;100077.09;5074071;28;20051;-75
2022/08/02 01:25:57;;;;;;;7.22;5.00;;;;;;;20.68;94.62;100075.78;5072502;28;20131;-75
2022/08/02 01:28:36;;;;;;;7.65;4.60;;;;;;;20.62;92.39;100081.81;5074109;28;20072;-81
2022/08/02 01:31:14;;;;;;;8.43;4.78;;;;;;;20.46;94.03;100077.16;5073876;28;20063;-81
2022/08/02 01:33:47;;;;;;;7.72;5.15;;;;;;;20.37;96.13;100073.53;5073739;28;20048;-81
2022/08/02 01:36:18;;;;;;;6.43;4.93;;;;;;;20.46;96.37;100077.16;5074063;28;20053;-81
2022/08/02 01:38:50;;;;;;;7.63;4.90;;;;;;;20.28;100.00;100074.47;5073697;28;20064;-78
2022/08/02 01:41:21;;;;;;;7.10;5.18;;;;;;;20.23;100.00;100072.22;5073752;28;20045;-78
2022/08/02 01:43:54;;;;;;;7.35;5.15;;;;;;;20.26;100.00;100071.06;5073461;28;20044;-78
2022/08/02 01:46:23;;;;;;;6.40;4.97;;;;;;;20.25;100.00;100066.66;5073585;28;20474;-78
2022/08/02 01:48:54;;;;;;;8.65;5.38;;;;;;;20.21;100.00;100068.00;5073482;28;20044;-78
2022/08/02 01:52:20;;;;;;;7.95;5.00;;;;;;;20.03;100.00;100073.44;5073783;28;20115;-78
2022/08/02 01:54:16;;;;;;;9.07;5.32;;;;;;;19.93;100.00;100076.25;5073334;28;20490;-78
2022/08/02 01:56:45;;;;;;;8.60;5.53;;;;;;;19.84;100.00;100082.59;5073199;28;20115;-78
2022/08/02 01:59:19;;;;;;;8.63;5.20;;;;;;;19.76;100.00;100090.63;5073746;28;20317;-78
2022/08/02 02:01:50;;;;;;;9.52;5.70;;;;;;;19.62;100.00;100092.03;5073338;28;20044;-78
2022/08/02 02:04:20;;;;;;;7.50;5.88;;;;;;;19.68;100.00;100106.78;5073503;28;20049;-78
2022/08/02 02:06:49;;;;;;;8.15;5.95;;;;;;;19.75;100.00;100105.16;5073121;28;20067;-79
2022/08/02 02:09:18;;;;;;;8.88;5.68;;;;;;;19.73;100.00;100107.19;5073258;28;20460;-79
2022/08/02 02:11:48;;;;;;;8.98;6.28;;;;;;;19.68;100.00;100094.09;5072752;28;20466;-78
2022/08/02 02:14:39;;;;;;;9.52;5.90;;;;;;;19.68;100.00;100101.38;5073510;28;20047;-78
2022/08/02 02:17:08;;;;;;;7.18;5.65;;;;;;;19.56;100.00;100113.44;5073252;28;20045;-78
2022/08/02 02:20:00;;;;;;;7.43;5.15;;;;;;;19.69;100.00;100116.63;5072923;28;20037;-78
2022/08/02 02:22:28;;;;;;;8.50;5.13;;;;;;;19.82;100.00;100122.50;5073384;28;20444;-79
2022/08/02 02:24:56;;;;;;;7.70;5.40;;;;;;;19.80;100.00;100119.09;5072987;28;20418;-79
2022/08/02 02:27:25;;;;;;;8.23;5.43;;;;;;;19.80;100.00;100119.09;5071902;28;20059;-79
2022/08/02 02:29:56;;;;;;;7.28;5.40;;;;;;;19.66;100.00;100116.91;5072778;28;20056;-78
2022/08/02 02:32:27;;;;;;;7.45;5.53;;;;;;;19.77;100.00;100113.13;5073061;28;20045;-79
2022/08/02 02:34:56;;;;;;;8.57;5.85;;;;;;;19.68;100.00;100120.31;5073066;28;20048;-80
2022/08/02 02:37:27;;;;;;;7.15;5.60;;;;;;;19.56;100.00;100114.28;5073096;28;20045;-74
2022/08/02 02:39:58;;;;;;;8.30;5.90;;;;;;;19.51;100.00;100123.84;5072822;28;20049;-77
2022/08/02 02:42:30;;;;;;;7.72;5.63;;;;;;;19.46;100.00;100121.56;5072992;28;20059;-77
2022/08/02 02:45:00;;;;;;;8.80;5.72;;;;;;;19.59;100.00;100122.09;5072478;28;20049;-74
2022/08/02 02:47:30;;;;;;;7.80;5.78;;;;;;;19.62;100.00;100119.09;5073307;28;20050;-82
2022/08/02 02:50:11;;;;;;;6.68;5.30;;;;;;;19.41;100.00;100129.31;5073076;28;20052;-77
2022/08/02 02:52:41;;;;;;;8.23;5.97;;;;;;;19.42;100.00;100115.63;5072895;28;20048;-74
2022/08/02 02:55:10;;;;;;;7.78;5.57;;;;;;;19.48;100.00;100130.38;5072678;28;20119;-74
2022/08/02 02:57:41;;;;;;;6.50;5.38;;;;;;;19.55;100.00;100123.38;5073315;28;20102;-78
2022/08/02 03:00:14;;;;;;;7.65;5.38;;;;;;;19.54;100.00;100134.34;5072608;28;20452;-74
2022/08/02 03:02:43;;;;;;;9.43;5.70;;;;;;;19.44;100.00;100129.84;5071420;28;20053;-76
2022/08/02 03:05:12;;;;;;;8.30;5.85;;;;;;;19.51;100.00;100124.69;5072521;28;20047;-75
2022/08/02 03:07:41;;;;;;;7.05;5.60;;;;;;;19.45;100.00;100119.88;5072544;28;20048;-76
2022/08/02 03:10:10;;;;;;;9.70;6.40;;;;;;;19.36;100.00;100118.94;5072629;28;20037;-77
2022/08/02 03:12:39;;;;;;;8.73;5.63;;;;;;;19.39;100.00;100118.63;5072772;28;20044;-77
2022/08/02 03:15:08;;;;;;;9.38;6.20;;;;;;;19.25;100.00;100119.16;5072461;28;20067;-78
2022/08/02 03:17:40;;;;;;;7.68;5.70;;;;;;;19.12;100.00;100102.44;5072961;28;20041;-78
2022/08/02 03:20:11;;;;;;;7.70;5.78;;;;;;;19.15;100.00;100107.53;5072283;28;20041;-76
2022/08/02 03:22:41;;;;;;;11.85;6.15;;;;;;;19.20;100.00;100105.22;5072517;28;20048;-77
2022/08/02 03:25:10;;;;;;;6.32;5.55;;;;;;;19.25;100.00;100102.94;5075539;28;20509;-77
2022/08/02 03:27:39;;;;;;;8.27;5.90;;;;;;;19.33;100.00;100104.88;5076132;28;20063;-78
2022/08/02 03:30:11;;;;;;;7.03;6.10;;;;;;;19.31;100.00;100106.88;5075894;28;20041;-77
2022/08/02 03:32:44;;;;;;;8.13;5.57;;;;;;;19.17;100.00;100105.53;5076162;28;20405;-77
2022/08/02 03:35:14;;;;;;;7.82;5.53;;;;;;;19.09;100.00;100105.44;5075849;28;20045;-79
2022/08/02 03:37:52;;;;;;;7.72;5.82;;;;;;;19.12;100.00;100103.28;5074921;28;20045;-78
2022/08/02 03:40:26;;;;;;;6.47;5.40;;;;;;;19.27;100.00;100116.28;5076079;28;20041;-78
2022/08/02 03:42:55;;;;;;;9.25;5.80;;;;;;;19.24;100.00;100122.84;5074537;28;20052;-78
2022/08/02 03:45:25;;;;;;;8.43;6.15;;;;;;;19.07;100.00;100126.34;5075821;28;20074;-78
2022/08/02 03:47:56;;;;;;;7.97;5.35;;;;;;;19.17;100.00;100125.31;5074705;28;20125;-78
2022/08/02 03:50:28;;;;;;;8.70;5.80;;;;;;;19.18;100.00;100123.44;5075740;28;20049;-77
2022/08/02 03:52:56;;;;;;;8.77;5.47;;;;;;;19.27;100.00;100133.38;5075827;28;20434;-77
2022/08/02 03:55:25;;;;;;;9.15;6.25;;;;;;;19.30;100.00;100133.09;5075669;28;20051;-78
2022/08/02 03:57:53;;;;;;;9.02;6.13;;;;;;;19.18;100.00;100134.25;5075705;28;20044;-78
2022/08/02 04:00:22;;;;;;;7.22;5.97;;;;;;;19.26;100.00;100133.53;5075856;28;20465;-76
2022/08/02 04:02:51;;;;;;;7.85;6.00;;;;;;;19.27;100.00;100133.38;5075454;28;20041;-77
2022/08/02 04:05:21;;;;;;;7.55;6.28;;;;;;;19.42;100.00;100139.97;5075399;28;20512;-77
2022/08/02 04:07:49;;;;;;;7.32;6.05;;;;;;;19.42;100.00;100141.84;5075259;28;20555;-78
2022/08/02 04:13:28;;;;;;;8.77;6.18;;;;;;;19.26;100.00;100142.47;5075376;28;20162;-75
2022/08/02 04:16:07;;;;;;;7.80;6.20;;;;;;;19.43;100.00;100148.94;5075182;28;20075;-77
2022/08/02 04:18:41;;;;;;;8.85;6.15;;;;;;;19.53;100.00;100154.28;5075613;28;20041;-77
2022/08/02 04:21:14;;;;;;;8.43;6.13;;;;;;;19.57;100.00;100158.41;5075221;28;20048;-75
2022/08/02 04:23:45;;;;;;;8.65;6.63;;;;;;;19.60;100.00;100158.13;5075310;28;20047;-75
2022/08/02 04:26:14;;;;;;;9.20;6.80;;;;;;;19.69;100.00;100163.47;5074856;28;20076;-72
2022/08/02 04:28:43;;;;;;;7.60;6.70;;;;;;;20.52;100.00;100163.22;5075281;28;20052;-73
2022/08/02 04:31:11;;;;;;;8.52;6.07;;;;;;;20.83;100.00;100163.59;5074908;28;20036;-77
2022/08/02 04:33:40;;;;;;;8.30;5.82;;;;;;;21.21;100.00;100159.53;5075182;28;20043;-76
2022/08/02 04:36:12;;;;;;;9.55;6.30;;;;;;;21.26;100.00;100161.78;5074102;28;20063;-74
2022/08/02 04:38:42;;;;;;;7.15;5.82;;;;;;;21.85;100.00;100159.97;5074779;28;20044;-75
2022/08/02 04:41:10;;;;;;;9.15;5.97;;;;;;;22.03;96.85;100160.66;5073456;28;20048;-74
2022/08/02 04:43:38;;;;;;;7.65;5.30;;;;;;;22.35;90.13;100161.72;5075117;28;20128;-74
2022/08/02 04:46:07;;;;;;;9.95;5.70;;;;;;;22.47;87.64;100165.78;5074359;28;20041;-74
2022/08/02 04:48:35;;;;;;;7.30;5.40;;;;;;;22.58;84.92;100165.41;5074727;28;20036;-74
2022/08/02 04:51:03;;;;;;;8.20;5.25;;;;;;;22.54;86.67;100174.94;5073326;28;20052;-77
2022/08/02 04:53:33;;;;;;;7.88;5.55;;;;;;;23.32;79.62;100171.56;5074614;28;20473;-77
2022/08/02 04:56:01;;;;;;;7.40;5.30;;;;;;;24.18;72.69;100165.13;5074789;28;20041;-75
2022/08/02 04:58:29;;;;;;;6.93;5.15;;;;;;;24.26;69.42;100171.34;5074777;28;20455;-76
2022/08/02 05:01:07;;;;;;;7.40;5.00;;;;;;;24.69;67.87;100163.50;5074213;28;20043;-78
2022/08/02 05:03:35;;;;;;;7.35;4.97;;;;;;;24.96;65.87;100164.75;5073016;28;20459;-77
2022/08/02 05:06:04;;;;;;;7.30;5.28;;;;;;;24.13;69.86;100178.47;5074256;28;20047;-77
2022/08/02 05:08:49;;;;;;;7.60;5.15;;;;;;;24.33;68.07;100163.34;5073028;28;20102;-75
2022/08/02 05:11:21;;;;;;;6.53;5.30;;;;;;;23.13;75.55;100170.09;5072997;28;20045;-76
2022/08/02 05:14:02;;;;;;;6.82;4.95;;;;;;;24.46;68.21;100171.72;5074049;28;20497;-76
2022/08/02 05:16:30;;;;;;;5.88;4.55;;;;;;;25.16;63.39;100164.22;5074058;28;20401;-76
2022/08/02 05:18:59;;;;;;;7.30;4.35;;;;;;;25.48;60.66;100161.09;5073608;28;20048;-76
2022/08/02 05:21:28;;;;;;;7.07;4.32;;;;;;;25.71;59.16;100171.91;5074323;28;20043;-78
2022/08/02 05:23:57;;;;;;;5.75;4.30;;;;;;;26.20;57.29;100173.91;5073862;28;20107;-73
2022/08/02 05:26:25;;;;;;;7.47;4.63;;;;;;;26.36;54.56;100183.72;5073977;28;20124;-74
2022/08/02 05:28:53;;;;;;;7.72;4.30;;;;;;;26.09;55.02;100185.34;5073561;28;20041;-76
2022/08/02 05:31:22;;;;;;;5.82;4.05;;;;;;;26.43;54.09;100190.13;5072378;28;20102;-74
2022/08/02 05:33:50;;;;;;;7.28;4.30;;;;;;;27.27;51.43;100182.75;5073757;28;20044;-74
2022/08/02 05:36:18;;;;;;;7.38;3.83;;;;;;;27.42;50.72;100195.50;5073436;28;20131;-74
2022/08/02 05:38:49;;;;;;;7.63;4.07;;;;;;;27.20;50.75;100200.19;5073826;28;20044;-72
2022/08/02 05:41:21;;;;;;;6.95;3.90;;;;;;;27.16;50.12;100207.13;5073272;28;20071;-73
2022/08/02 05:43:49;;;;;;;4.82;3.55;;;;;;;27.59;49.31;100207.78;5073755;28;20496;-74
2022/08/02 05:46:17;;;;;;;9.25;4.30;;;;;;;27.55;49.45;100212.00;5071639;28;20495;-75
2022/08/02 05:48:45;;;;;;;6.00;4.13;;;;;;;27.54;49.47;100208.41;5073043;28;20482;-74
2022/08/02 05:51:23;;;;;;;9.70;4.40;;;;;;;27.61;48.90;100214.75;5073319;28;20374;-74
2022/08/02 05:54:09;;;;;;;8.25;4.10;;;;;;;28.02;48.53;100207.56;5073135;28;20056;-76
2022/08/02 05:56:46;;;;;;;6.38;4.07;;;;;;;28.05;48.11;100218.94;5073293;28;20063;-74
2022/08/02 05:59:26;;;;;;;7.00;3.90;;;;;;;28.77;44.70;100218.25;5071955;28;20450;-74
2022/08/02 06:01:57;;;;;;;6.22;4.20;;;;;;;28.78;46.23;100208.09;5073527;28;20120;-74
2022/08/02 06:04:33;;;;;;;7.30;3.95;;;;;;;29.23;43.91;100209.09;5073218;28;20382;-72
2022/08/02 06:07:05;;;;;;;7.97;4.13;;;;;;;29.84;42.31;100205.97;5072966;28;20036;-73
2022/08/02 06:09:34;;;;;;;5.53;4.15;;;;;;;29.03;43.73;100206.41;5073400;28;20036;-74
2022/08/02 06:12:09;;;;;;;5.90;4.18;;;;;;;29.47;43.32;100206.72;5071632;28;20059;-73
2022/08/02 06:14:37;;;;;;;6.70;4.07;;;;;;;29.02;43.61;100215.69;5073375;28;20040;-73
2022/08/02 06:17:05;;;;;;;8.18;3.67;;;;;;;29.17;43.39;100217.38;5072712;28;20071;-71
2022/08/02 06:19:38;;;;;;;6.35;3.70;;;;;;;29.02;42.41;100223.94;5073013;28;20546;-73
2022/08/02 06:22:20;;;;;;;7.38;3.80;;;;;;;29.35;41.93;100223.06;5072808;28;20036;-72
2022/08/02 06:25:06;;;;;;;6.57;3.50;;;;;;;29.86;41.63;100227.75;5072880;28;20094;-70
2022/08/02 06:27:56;;;;;;;5.35;3.35;;;;;;;30.48;40.41;100224.22;5073043;28;20040;-72
2022/08/02 06:30:26;;;;;;;5.75;3.30;;;;;;;30.85;39.61;100218.88;5073154;28;20037;-71
2022/08/02 06:32:54;;;;;;;7.55;4.00;;;;;;;30.69;38.57;100219.44;5072949;28;20513;-71
2022/08/02 06:35:25;;;;;;;8.00;3.63;;;;;;;30.20;40.01;100218.28;5072700;28;20052;-75
2022/08/02 06:37:59;;;;;;;11.77;3.90;;;;;;;31.00;38.93;100224.06;5073146;28;20041;-75
2022/08/02 06:40:32;;;;;;;8.70;3.83;;;;;;;30.17;39.63;100230.56;5072834;28;20067;-75
2022/08/02 06:43:12;;;;;;;4.97;3.50;;;;;;;31.57;37.35;100225.59;5072680;28;20443;-72
2022/08/02 06:45:41;;;;;;;6.88;3.88;;;;;;;31.04;38.49;100230.78;5071619;28;20497;-73
2022/08/02 06:48:11;;;;;;;6.13;3.50;;;;;;;30.65;38.71;100232.81;5072828;28;20037;-72
2022/08/02 06:50:40;;;;;;;6.43;3.50;;;;;;;30.87;38.12;100229.66;5072654;28;20528;-72
2022/08/02 06:53:10;;;;;;;5.13;3.30;;;;;;;30.92;38.05;100227.09;5071360;28;20509;-73
2022/08/02 06:55:38;;;;;;;5.97;3.13;;;;;;;31.45;36.59;100221.88;5072713;28;20131;-73
2022/08/02 06:58:13;;;;;;;6.07;3.60;;;;;;;30.61;37.53;100226.03;5074333;28;20058;-72
2022/08/02 07:00:42;;;;;;;7.32;3.45;;;;;;;31.57;36.42;100224.75;5076761;28;20120;-73
2022/08/02 07:03:10;;;;;;;6.22;4.05;;;;;;;31.13;37.34;100223.91;5076653;28;20087;-72
2022/08/02 07:05:39;;;;;;;6.90;3.50;;;;;;;29.66;40.01;100222.34;5076714;28;20055;-74
2022/08/02 07:08:07;;;;;;;6.47;3.70;;;;;;;29.01;41.59;100225.00;5076042;28;20118;-74
2022/08/02 07:10:35;;;;;;;4.97;3.40;;;;;;;28.53;42.77;100227.09;5075481;28;20044;-74
2022/08/02 07:13:03;;;;;;;5.18;3.20;;;;;;;28.44;42.87;100228.34;5076520;28;20513;-75
2022/08/02 07:15:33;;;;;;;6.95;3.40;;;;;;;28.14;44.81;100225.94;5076371;28;20463;-75
2022/08/02 07:18:01;;;;;;;6.70;3.55;;;;;;;28.07;44.13;100219.56;5076267;28;20048;-75
2022/08/02 07:20:29;;;;;;;7.28;3.45;;;;;;;27.66;45.08;100225.13;5075011;28;20052;-74
2022/08/02 07:22:57;;;;;;;9.38;4.32;;;;;;;27.67;46.42;100235.03;5076236;28;20044;-74
2022/08/02 07:25:26;;;;;;;6.63;3.22;;;;;;;28.00;47.20;100228.84;5076229;28;20132;-74
2022/08/02 07:28:15;;;;;;;7.50;3.63;;;;;;;28.06;46.85;100225.28;5075847;28;20048;-75
2022/08/02 07:30:52;;;;;;;4.90;3.30;;;;;;;28.15;47.59;100224.88;5076393;28;20040;-74
2022/08/02 07:33:20;;;;;;;6.90;3.55;;;;;;;28.12;45.86;100225.28;5076040;28;20094;-75
2022/08/02 07:36:07;;;;;;;6.20;3.20;;;;;;;27.66;44.99;100228.72;5075801;28;20049;-75
2022/08/02 07:38:44;;;;;;;4.50;3.35;;;;;;;27.50;46.77;100222.69;5076252;28;20044;-75
2022/08/02 07:41:12;;;;;;;5.82;3.35;;;;;;;27.46;47.14;100224.16;5074549;28;20049;-73
2022/08/02 07:43:40;;;;;;;6.20;3.00;;;;;;;27.68;47.19;100223.03;5076089;28;20068;-74
2022/08/02 07:46:10;;;;;;;6.65;3.10;;;;;;;27.65;45.06;100223.41;5074420;28;20048;-75
2022/08/02 07:48:38;;;;;;;5.32;2.72;;;;;;;27.54;44.65;100226.72;5075675;28;20489;-74
2022/08/02 07:51:06;;;;;;;6.05;2.78;;;;;;;27.64;42.84;100221.72;5075310;28;20070;-75
2022/08/02 07:53:35;;;;;;;4.93;2.85;;;;;;;27.50;43.40;100219.94;5075591;28;20481;-75
2022/08/02 07:56:23;;;;;;;5.80;2.63;;;;;;;27.23;43.93;100214.34;5075537;28;20504;-74
2022/08/02 07:58:51;;;;;;;5.80;2.80;;;;;;;27.15;43.64;100214.50;5075712;28;20117;-74
2022/08/02 08:01:20;;;;;;;5.15;2.58;;;;;;;27.35;42.34;100218.22;5075316;28;20048;-74
2022/08/02 08:03:49;;;;;;;5.50;2.92;;;;;;;27.47;42.80;100209.41;5075579;28;20503;-75
2022/08/02 08:06:17;;;;;;;5.97;2.80;;;;;;;27.55;41.94;100210.09;5075428;28;20439;-74
2022/08/02 08:08:55;;;;;;;6.57;2.50;;;;;;;27.49;42.22;100207.31;5074843;28;20129;-74
2022/08/02 08:11:24;;;;;;;4.43;2.35;;;;;;;27.69;40.34;100202.78;5073712;28;20098;-75
2022/08/02 08:13:52;;;;;;;7.50;2.70;;;;;;;27.85;40.82;100212.56;5075793;28;20076;-74
2022/08/02 08:16:21;;;;;;;7.55;2.38;;;;;;;27.86;41.10;100209.59;5075295;28;20040;-74
2022/08/02 08:18:50;;;;;;;6.35;2.40;;;;;;;27.85;40.65;100212.56;5075431;28;20044;-75
2022/08/02 08:21:18;;;;;;;6.47;3.08;;;;;;;27.90;41.89;100219.13;5075002;28;20119;-75
2022/08/02 08:23:46;;;;;;;5.10;2.47;;;;;;;27.70;40.11;100215.47;5075172;28;20049;-75
2022/08/02 08:26:14;;;;;;;5.15;2.65;;;;;;;27.72;39.83;100218.84;5075222;28;20068;-75
2022/08/02 08:28:43;;;;;;;6.10;2.50;;;;;;;27.73;39.55;100219.69;5073868;28;20052;-74
2022/08/02 08:31:11;;;;;;;6.85;2.97;;;;;;;27.80;40.37;100221.41;5075019;28;20048;-75
2022/08/02 08:33:40;;;;;;;4.50;2.58;;;;;;;27.80;40.05;100229.63;5075041;28;20123;-74
2022/08/02 08:36:09;;;;;;;5.03;2.55;;;;;;;27.95;39.31;100227.56;5073101;28;20488;-75
2022/08/02 08:38:37;;;;;;;6.32;2.22;;;;;;;27.92;40.51;100224.41;5075090;28;20156;-74
2022/08/02 08:41:05;;;;;;;4.68;2.55;;;;;;;28.00;39.77;100231.59;5073262;28;20051;-76
2022/08/02 08:43:35;;;;;;;4.65;2.38;;;;;;;27.88;39.73;100234.06;5074821;28;20045;-74
2022/08/02 08:46:04;;;;;;;5.22;2.53;;;;;;;28.00;39.10;100240.66;5074788;28;20051;-74
2022/08/02 08:48:36;;;;;;;4.28;2.40;;;;;;;27.84;39.32;100233.63;5074472;28;20090;-74
2022/08/02 08:51:10;;;;;;;4.97;2.40;;;;;;;27.96;39.75;100236.63;5073549;28;20083;-74
2022/08/02 08:53:42;;;;;;;4.85;2.10;;;;;;;27.88;39.74;100234.91;5074698;28;20615;-74
2022/08/02 08:56:12;;;;;;;6.13;2.42;;;;;;;27.90;40.82;100230.09;5074532;28;20387;-74
2022/08/02 08:58:46;;;;;;;3.58;2.22;;;;;;;27.85;39.69;100232.59;5074769;28;20444;-75
2022/08/02 09:01:15;;;;;;;5.45;2.70;;;;;;;27.86;39.84;100234.28;5074271;28;20044;-74
2022/08/02 09:03:44;;;;;;;4.05;2.70;;;;;;;27.78;40.23;100234.44;5073168;28;20048;-75
2022/08/02 09:06:14;;;;;;;5.47;2.30;;;;;;;27.90;39.61;100232.84;5074076;28;20139;-75
2022/08/02 09:08:42;;;;;;;5.38;2.60;;;;;;;27.85;39.70;100235.31;5074288;28;20045;-74
2022/08/02 09:11:14;;;;;;;4.75;2.50;;;;;;;27.56;40.22;100236.44;5074143;28;20049;-74
2022/08/02 09:13:50;;;;;;;3.35;2.38;;;;;;;27.70;40.58;100240.13;5074202;28;20041;-74
2022/08/02 09:16:30;;;;;;;5.22;2.60;;;;;;;27.70;41.54;100240.13;5073888;28;20501;-75
2022/08/02 09:18:58;;;;;;;5.20;2.80;;;;;;;27.79;40.24;100241.63;5074445;28;20561;-74
2022/08/02 09:21:37;;;;;;;7.22;2.65;;;;;;;28.03;39.87;100239.41;5073800;28;20060;-74
2022/08/02 09:24:16;;;;;;;5.90;2.80;;;;;;;27.75;40.04;100240.34;5074180;28;20383;-74
2022/08/02 09:26:45;;;;;;;5.40;2.78;;;;;;;27.89;39.68;100241.22;5074044;28;20052;-74
2022/08/02 09:29:14;;;;;;;5.18;2.58;;;;;;;27.87;39.64;100238.69;5072440;28;20397;-74
2022/08/02 09:31:43;;;;;;;5.05;2.63;;;;;;;27.99;39.52;100244.47;5074048;28;20406;-74
2022/08/02 09:34:17;;;;;;;3.88;2.50;;;;;;;27.84;39.55;100233.63;5073679;28;20033;-75
2022/08/02 09:36:48;;;;;;;5.15;2.40;;;;;;;27.95;39.47;100232.19;5073668;28;20056;-74
2022/08/02 09:39:25;;;;;;;3.78;2.50;;;;;;;27.84;39.32;100241.88;5072204;28;20052;-75
2022/08/02 09:42:07;;;;;;;4.53;2.55;;;;;;;27.74;39.22;100237.81;5073577;28;20041;-72
2022/08/02 09:44:35;;;;;;;5.10;2.80;;;;;;;27.95;39.24;100245.91;5074084;28;20059;-74
2022/08/02 09:47:14;;;;;;;3.45;2.60;;;;;;;27.77;40.25;100234.66;5073591;28;20053;-74
2022/08/02 09:49:45;;;;;;;4.78;2.50;;;;;;;27.84;40.25;100232.78;5073477;28;20383;-75
2022/08/02 09:52:27;;;;;;;4.60;2.58;;;;;;;28.21;40.17;100231.44;5073512;28;20098;-75
2022/08/02 09:55:13;;;;;;;4.45;2.70;;;;;;;28.22;38.99;100230.38;5073390;28;20119;-76
2022/08/02 09:57:41;;;;;;;4.13;2.40;;;;;;;28.41;39.83;100229.59;5072195;28;20063;-74
2022/08/02 10:00:10;;;;;;;6.32;2.85;;;;;;;28.34;38.68;100227.91;5072165;28;20110;-74
2022/08/02 10:03:06;;;;;;;3.55;2.35;;;;;;;28.60;38.24;100225.19;5072652;28;20135;-74
2022/08/02 10:05:52;;;;;;;3.80;2.75;;;;;;;28.54;37.94;100219.69;5051206;28;20057;-74
2022/08/02 10:08:46;;;;;;;4.55;2.67;;;;;;;28.60;38.60;100216.13;5050260;28;20041;-74
2022/08/02 10:11:14;;;;;;;5.00;2.60;;;;;;;28.44;37.87;100225.59;5050858;28;20049;-74
2022/08/02 10:13:43;;;;;;;5.47;2.95;;;;;;;28.44;38.48;100220.09;5051061;28;20044;-74
2022/08/02 10:16:12;;;;;;;3.88;2.38;;;;;;;28.56;38.79;100207.44;5050950;28;20465;-76
2022/08/02 10:18:40;;;;;;;5.75;2.60;;;;;;;28.62;38.24;100203.03;5051118;28;20076;-74
2022/08/02 10:21:14;;;;;;;3.85;2.50;;;;;;;28.68;38.05;100202.19;5050994;28;20669;-74
2022/08/02 10:23:49;;;;;;;5.10;2.45;;;;;;;28.89;37.50;100204.75;5051011;28;20048;-74
2022/08/02 10:26:18;;;;;;;4.63;2.60;;;;;;;28.97;36.84;100204.53;5050737;28;20498;-74
2022/08/02 10:28:49;;;;;;;3.92;2.60;;;;;;;29.06;37.84;100203.25;5050679;28;20051;-74
2022/08/02 10:31:23;;;;;;;5.15;2.78;;;;;;;29.15;37.01;100201.13;5050796;28;20041;-74
2022/08/02 10:33:54;;;;;;;3.90;2.85;;;;;;;29.26;37.53;100185.88;5050615;28;20124;-75
2022/08/02 10:36:25;;;;;;;5.75;2.80;;;;;;;29.30;36.78;100195.38;5033685;28;20537;-74
2022/08/02 10:38:58;;;;;;;4.75;2.72;;;;;;;29.39;36.46;100188.56;5050890;28;20075;-74
2022/08/02 10:41:47;;;;;;;5.07;2.58;;;;;;;29.06;37.09;100184.03;5050728;28;20084;-75
2022/08/02 10:44:29;;;;;;;3.70;2.35;;;;;;;28.90;36.89;100183.63;5050378;28;20080;-75
2022/08/02 10:47:20;;;;;;;3.58;2.25;;;;;;;29.18;37.09;100186.13;5050762;28;20081;-74
2022/08/02 10:49:52;;;;;;;3.47;2.20;;;;;;;29.11;36.59;100188.03;5049215;28;20060;-74
2022/08/02 10:52:21;;;;;;;4.63;2.40;;;;;;;29.11;36.76;100185.28;5072454;28;20273;-75
2022/08/02 10:54:56;;;;;;;5.00;2.40;;;;;;;29.20;36.70;100184.00;5071875;28;20048;-74
2022/08/02 10:57:25;;;;;;;4.13;2.13;;;;;;;29.28;36.11;100184.59;5072594;28;20482;-74
2022/08/02 11:00:00;;;;;;;3.90;2.25;;;;;;;29.48;36.70;100180.94;5073041;28;20059;-74
2022/08/02 11:02:39;;;;;;;4.78;2.58;;;;;;;29.55;36.67;100173.56;5072269;28;20048;-75
2022/08/02 11:05:10;;;;;;;3.50;2.00;;;;;;;29.62;35.47;100180.69;5071718;28;20053;-75
2022/08/02 11:07:41;;;;;;;3.85;2.22;;;;;;;29.47;36.10;100188.34;5072756;28;20131;-75
2022/08/02 11:10:38;;;;;;;4.28;2.10;;;;;;;29.31;36.28;100172.31;5071168;28;20048;-75
2022/08/02 11:13:12;;;;;;;5.13;2.08;;;;;;;29.22;36.42;100170.88;5072274;28;20482;-74
2022/08/02 11:15:49;;;;;;;5.38;2.47;;;;;;;29.36;36.29;100175.28;5072726;28;20045;-75
2022/08/02 11:18:19;;;;;;;4.40;2.50;;;;;;;29.55;35.18;100165.31;5072309;28;20041;-75
2022/08/02 11:20:47;;;;;;;3.45;2.20;;;;;;;29.43;35.70;100162.34;5072427;28;20493;-74
2022/08/02 11:23:36;;;;;;;3.50;2.00;;;;;;;29.70;35.51;100168.59;5071010;28;20079;-76
2022/08/02 11:26:45;;;;;;;3.95;2.22;;;;;;;29.78;35.67;100164.75;5071428;28;20135;-74
2022/08/02 11:29:14;;;;;;;5.13;1.90;;;;;;;30.00;35.30;100159.75;5072526;28;20128;-74
2022/08/02 11:31:45;;;;;;;3.20;2.00;;;;;;;30.07;34.65;100152.34;5071036;28;20048;-74
2022/08/02 11:34:13;;;;;;;4.00;1.92;;;;;;;29.93;34.86;100157.91;5072377;28;20044;-74
2022/08/02 11:37:02;;;;;;;2.85;1.90;;;;;;;29.53;35.03;100161.91;5072589;28;20127;-74
2022/08/02 11:39:32;;;;;;;3.55;1.90;;;;;;;29.51;35.72;100153.88;5072038;28;20504;-74
2022/08/02 11:42:01;;;;;;;2.53;1.80;;;;;;;29.84;35.53;100156.50;5071227;28;20052;-74
2022/08/02 11:44:30;;;;;;;5.15;2.13;;;;;;;30.07;34.52;100153.19;5071116;28;20080;-74
2022/08/02 11:47:01;;;;;;;2.97;1.80;;;;;;;29.93;34.64;100154.34;5075974;28;20072;-74
2022/08/02 11:49:30;;;;;;;4.28;2.00;;;;;;;29.89;34.40;100158.56;5074345;28;20048;-74
2022/08/02 11:52:03;;;;;;;2.33;1.63;;;;;;;29.71;34.83;100155.69;5075911;28;20090;-75